sensor_id;sensor_type;location;lat;lon;timestamp;pressure;altitude;pressure_sealevel;temperature;humidity
60355;BME280;46198;51.464;-0.066;2023-01-25T00:01:40;103710.59;;;0.15;100.00
60355;BME280;46198;51.464;-0.066;2023-01-25T00:04:33;103711.53;;;0.14;100.00
60355;BME280;46198;51.464;-0.066;2023-01-25T00:10:23;103702.13;;;0.07;100.00
60355;BME280;46198;51.464;-0.066;2023-01-25T00:12:52;103703.31;;;0.01;100.00
60355;BME280;46198;51.464;-0.066;2023-01-25T00:15:20;103700.84;;;-0.04;100.00
60355;BME280;46198;51.464;-0.066;2023-01-25T00:17:48;103695.84;;;-0.10;100.00
60355;BME280;46198;51.464;-0.066;2023-01-25T00:20:16;103695.16;;;-0.13;100.00
60355;BME280;46198;51.464;-0.066;2023-01-25T00:22:44;103701.50;;;-0.16;100.00
60355;BME280;46198;51.464;-0.066;2023-01-25T00:25:12;103694.69;;;-0.21;100.00
60355;BME280;46198;51.464;-0.066;2023-01-25T00:27:41;103695.75;;;-0.26;100.00
60355;BME280;46198;51.464;-0.066;2023-01-25T00:30:10;103689.72;;;-0.29;100.00
60355;BME280;46198;51.464;-0.066;2023-01-25T00:32:52;103697.81;;;-0.31;100.00
60355;BME280;46198;51.464;-0.066;2023-01-25T00:35:21;103693.63;;;-0.36;100.00
60355;BME280;46198;51.464;-0.066;2023-01-25T00:37:51;103696.41;;;-0.38;100.00
60355;BME280;46198;51.464;-0.066;2023-01-25T00:40:19;103692.94;;;-0.40;100.00
60355;BME280;46198;51.464;-0.066;2023-01-25T00:42:49;103692.22;;;-0.43;100.00
60355;BME280;46198;51.464;-0.066;2023-01-25T00:49:05;103691.66;;;-0.50;100.00
60355;BME280;46198;51.464;-0.066;2023-01-25T00:51:33;103689.06;;;-0.52;100.00
60355;BME280;46198;51.464;-0.066;2023-01-25T00:54:01;103680.47;;;-0.57;100.00
60355;BME280;46198;51.464;-0.066;2023-01-25T00:56:29;103685.78;;;-0.57;100.00
60355;BME280;46198;51.464;-0.066;2023-01-25T00:58:58;103691.25;;;-0.60;100.00
60355;BME280;46198;51.464;-0.066;2023-01-25T01:01:26;103688.69;;;-0.61;100.00
60355;BME280;46198;51.464;-0.066;2023-01-25T01:03:55;103687.66;;;-0.59;100.00
60355;BME280;46198;51.464;-0.066;2023-01-25T01:06:23;103681.22;;;-0.55;100.00
60355;BME280;46198;51.464;-0.066;2023-01-25T01:08:51;103684.84;;;-0.56;100.00
60355;BME280;46198;51.464;-0.066;2023-01-25T01:11:21;103675.34;;;-0.61;100.00
60355;BME280;46198;51.464;-0.066;2023-01-25T01:13:49;103663.97;;;-0.65;100.00
60355;BME280;46198;51.464;-0.066;2023-01-25T01:16:19;103666.75;;;-0.68;100.00
60355;BME280;46198;51.464;-0.066;2023-01-25T01:18:47;103669.38;;;-0.67;100.00
60355;BME280;46198;51.464;-0.066;2023-01-25T01:21:17;103661.41;;;-0.68;100.00
60355;BME280;46198;51.464;-0.066;2023-01-25T01:23:45;103668.41;;;-0.65;100.00
60355;BME280;46198;51.464;-0.066;2023-01-25T01:26:14;103656.72;;;-0.63;100.00
60355;BME280;46198;51.464;-0.066;2023-01-25T01:28:45;103664.72;;;-0.63;100.00
60355;BME280;46198;51.464;-0.066;2023-01-25T01:31:15;103663.16;;;-0.67;100.00
60355;BME280;46198;51.464;-0.066;2023-01-25T01:33:54;103668.66;;;-0.70;100.00
60355;BME280;46198;51.464;-0.066;2023-01-25T01:36:25;103656.41;;;-0.74;100.00
60355;BME280;46198;51.464;-0.066;2023-01-25T01:38:54;103660.03;;;-0.75;100.00
60355;BME280;46198;51.464;-0.066;2023-01-25T01:41:22;103652.66;;;-0.70;100.00
60355;BME280;46198;51.464;-0.066;2023-01-25T01:43:51;103652.66;;;-0.70;100.00
60355;BME280;46198;51.464;-0.066;2023-01-25T01:46:22;103643.84;;;-0.72;100.00
60355;BME280;46198;51.464;-0.066;2023-01-25T01:48:55;103650.28;;;-0.76;100.00
60355;BME280;46198;51.464;-0.066;2023-01-25T01:51:33;103637.09;;;-0.79;100.00
60355;BME280;46198;51.464;-0.066;2023-01-25T01:54:07;103645.19;;;-0.81;100.00
60355;BME280;46198;51.464;-0.066;2023-01-25T01:56:40;103640.88;;;-0.83;100.00
60355;BME280;46198;51.464;-0.066;2023-01-25T01:59:11;103641.94;;;-0.87;100.00
60355;BME280;46198;51.464;-0.066;2023-01-25T02:01:40;103640.91;;;-0.85;100.00
60355;BME280;46198;51.464;-0.066;2023-01-25T02:04:10;103653.41;;;-0.85;100.00
60355;BME280;46198;51.464;-0.066;2023-01-25T02:06:44;103648.63;;;-0.79;100.00
60355;BME280;46198;51.464;-0.066;2023-01-25T02:09:18;103656.41;;;-0.74;100.00
60355;BME280;46198;51.464;-0.066;2023-01-25T02:11:48;103646.19;;;-0.83;100.00
60355;BME280;46198;51.464;-0.066;2023-01-25T02:14:18;103654.09;;;-0.82;100.00
60355;BME280;46198;51.464;-0.066;2023-01-25T02:16:47;103660.47;;;-0.84;100.00
60355;BME280;46198;51.464;-0.066;2023-01-25T02:19:25;103654.19;;;-0.83;100.00
60355;BME280;46198;51.464;-0.066;2023-01-25T02:22:00;103658.44;;;-0.79;100.00
60355;BME280;46198;51.464;-0.066;2023-01-25T02:24:34;103660.09;;;-0.77;100.00
60355;BME280;46198;51.464;-0.066;2023-01-25T02:27:06;103655.53;;;-0.75;100.00
60355;BME280;46198;51.464;-0.066;2023-01-25T02:29:35;103662.69;;;-0.75;100.00
60355;BME280;46198;51.464;-0.066;2023-01-25T02:32:05;103660.72;;;-0.72;100.00
60355;BME280;46198;51.464;-0.066;2023-01-25T02:34:33;103656.09;;;-0.68;100.00
60355;BME280;46198;51.464;-0.066;2023-01-25T02:37:02;103651.53;;;-0.66;100.00
60355;BME280;46198;51.464;-0.066;2023-01-25T02:39:56;103646.16;;;-0.64;100.00
60355;BME280;46198;51.464;-0.066;2023-01-25T02:42:30;103639.69;;;-0.60;100.00
60355;BME280;46198;51.464;-0.066;2023-01-25T02:45:05;103649.34;;;-0.58;100.00
60355;BME280;46198;51.464;-0.066;2023-01-25T02:47:34;103645.59;;;-0.54;100.00
60355;BME280;46198;51.464;-0.066;2023-01-25T02:50:02;103644.50;;;-0.50;100.00
60355;BME280;46198;51.464;-0.066;2023-01-25T02:52:31;103646.06;;;-0.46;100.00
60355;BME280;46198;51.464;-0.066;2023-01-25T02:59:08;103640.88;;;-0.31;100.00
60355;BME280;46198;51.464;-0.066;2023-01-25T03:01:42;103637.72;;;-0.22;100.00
60355;BME280;46198;51.464;-0.066;2023-01-25T03:04:10;103641.00;;;-0.17;100.00
60355;BME280;46198;51.464;-0.066;2023-01-25T03:06:40;103651.41;;;-0.11;100.00
60355;BME280;46198;51.464;-0.066;2023-01-25T03:09:09;103640.38;;;-0.05;100.00
60355;BME280;46198;51.464;-0.066;2023-01-25T03:11:44;103650.72;;;0.02;100.00
60355;BME280;46198;51.464;-0.066;2023-01-25T03:14:13;103646.97;;;0.06;100.00
60355;BME280;46198;51.464;-0.066;2023-01-25T03:16:41;103640.44;;;0.11;100.00
60355;BME280;46198;51.464;-0.066;2023-01-25T03:19:09;103641.81;;;0.18;100.00
60355;BME280;46198;51.464;-0.066;2023-01-25T03:21:39;103638.91;;;0.23;100.00
60355;BME280;46198;51.464;-0.066;2023-01-25T03:24:08;103640.59;;;0.24;100.00
60355;BME280;46198;51.464;-0.066;2023-01-25T03:26:42;103644.75;;;0.30;100.00
60355;BME280;46198;51.464;-0.066;2023-01-25T03:29:37;103640.91;;;0.35;100.00
60355;BME280;46198;51.464;-0.066;2023-01-25T03:32:10;103643.25;;;0.41;100.00
60355;BME280;46198;51.464;-0.066;2023-01-25T03:34:39;103639.44;;;0.46;100.00
60355;BME280;46198;51.464;-0.066;2023-01-25T03:37:08;103642.13;;;0.46;100.00
60355;BME280;46198;51.464;-0.066;2023-01-25T03:39:37;103633.91;;;0.49;100.00
60355;BME280;46198;51.464;-0.066;2023-01-25T03:42:06;103625.66;;;0.53;100.00
60355;BME280;46198;51.464;-0.066;2023-01-25T03:44:34;103617.38;;;0.58;100.00
60355;BME280;46198;51.464;-0.066;2023-01-25T03:47:04;103625.22;;;0.61;100.00
60355;BME280;46198;51.464;-0.066;2023-01-25T03:49:32;103625.91;;;0.64;100.00
60355;BME280;46198;51.464;-0.066;2023-01-25T03:52:04;103623.94;;;0.68;100.00
60355;BME280;46198;51.464;-0.066;2023-01-25T03:54:36;103624.69;;;0.70;100.00
60355;BME280;46198;51.464;-0.066;2023-01-25T03:57:06;103623.59;;;0.74;100.00
60355;BME280;46198;51.464;-0.066;2023-01-25T03:59:46;103620.91;;;0.74;100.00
60355;BME280;46198;51.464;-0.066;2023-01-25T04:02:16;103611.00;;;0.76;100.00
60355;BME280;46198;51.464;-0.066;2023-01-25T04:04:44;103610.03;;;0.77;100.00
60355;BME280;46198;51.464;-0.066;2023-01-25T04:07:15;103607.13;;;0.82;100.00
60355;BME280;46198;51.464;-0.066;2023-01-25T04:09:43;103601.41;;;0.88;100.00
60355;BME280;46198;51.464;-0.066;2023-01-25T04:12:12;103609.06;;;0.94;100.00
60355;BME280;46198;51.464;-0.066;2023-01-25T04:14:40;103612.00;;;0.89;100.00
60355;BME280;46198;51.464;-0.066;2023-01-25T04:17:22;103605.63;;;0.92;100.00
60355;BME280;46198;51.464;-0.066;2023-01-25T04:19:58;103606.50;;;0.93;100.00
60355;BME280;46198;51.464;-0.066;2023-01-25T04:22:33;103607.19;;;0.96;100.00
60355;BME280;46198;51.464;-0.066;2023-01-25T04:25:04;103599.94;;;0.98;100.00
60355;BME280;46198;51.464;-0.066;2023-01-25T04:27:32;103607.06;;;0.98;100.00
60355;BME280;46198;51.464;-0.066;2023-01-25T04:30:08;103590.75;;;1.02;100.00
60355;BME280;46198;51.464;-0.066;2023-01-25T04:32:38;103598.72;;;1.04;100.00
60355;BME280;46198;51.464;-0.066;2023-01-25T04:35:19;103602.50;;;1.00;100.00
60355;BME280;46198;51.464;-0.066;2023-01-25T04:37:52;103596.88;;;1.04;100.00
60355;BME280;46198;51.464;-0.066;2023-01-25T04:43:43;103607.16;;;1.12;100.00
60355;BME280;46198;51.464;-0.066;2023-01-25T04:46:11;103599.19;;;1.10;100.00
60355;BME280;46198;51.464;-0.066;2023-01-25T04:48:41;103590.50;;;1.07;100.00
60355;BME280;46198;51.464;-0.066;2023-01-25T04:51:09;103594.72;;;1.11;100.00
60355;BME280;46198;51.464;-0.066;2023-01-25T04:53:38;103591.47;;;1.06;100.00
60355;BME280;46198;51.464;-0.066;2023-01-25T04:56:07;103590.31;;;1.10;100.00
60355;BME280;46198;51.464;-0.066;2023-01-25T04:58:44;103586.69;;;1.11;100.00
60355;BME280;46198;51.464;-0.066;2023-01-25T05:01:12;103584.56;;;1.02;100.00
60355;BME280;46198;51.464;-0.066;2023-01-25T05:03:41;103585.22;;;1.05;100.00
60355;BME280;46198;51.464;-0.066;2023-01-25T05:06:22;103589.53;;;1.08;100.00
60355;BME280;46198;51.464;-0.066;2023-01-25T05:08:50;103589.72;;;1.05;100.00
60355;BME280;46198;51.464;-0.066;2023-01-25T05:11:19;103591.63;;;1.03;100.00
60355;BME280;46198;51.464;-0.066;2023-01-25T05:13:58;103596.63;;;1.09;100.00
60355;BME280;46198;51.464;-0.066;2023-01-25T05:16:30;103599.91;;;1.14;100.00
60355;BME280;46198;51.464;-0.066;2023-01-25T05:19:00;103591.88;;;1.14;100.00
60355;BME280;46198;51.464;-0.066;2023-01-25T05:21:35;103588.31;;;1.14;100.00
60355;BME280;46198;51.464;-0.066;2023-01-25T05:24:21;103589.53;;;1.08;100.00
60355;BME280;46198;51.464;-0.066;2023-01-25T05:26:50;103584.09;;;1.09;100.00
60355;BME280;46198;51.464;-0.066;2023-01-25T05:29:57;103588.59;;;1.09;100.00
60355;BME280;46198;51.464;-0.066;2023-01-25T05:32:49;103581.84;;;1.18;100.00
60355;BME280;46198;51.464;-0.066;2023-01-25T05:35:19;103578.13;;;1.20;100.00
60355;BME280;46198;51.464;-0.066;2023-01-25T05:38:16;103586.94;;;1.22;100.00
60355;BME280;46198;51.464;-0.066;2023-01-25T05:40:44;103576.97;;;1.24;100.00
60355;BME280;46198;51.464;-0.066;2023-01-25T05:43:13;103580.81;;;1.20;100.00
60355;BME280;46198;51.464;-0.066;2023-01-25T05:45:41;103585.41;;;1.02;100.00
60355;BME280;46198;51.464;-0.066;2023-01-25T05:48:10;103576.16;;;1.08;100.00
60355;BME280;46198;51.464;-0.066;2023-01-25T05:50:39;103584.38;;;1.05;100.00
60355;BME280;46198;51.464;-0.066;2023-01-25T05:53:10;103586.88;;;1.08;100.00
60355;BME280;46198;51.464;-0.066;2023-01-25T05:59:00;103588.88;;;1.04;100.00
60355;BME280;46198;51.464;-0.066;2023-01-25T06:01:28;103591.38;;;0.92;100.00
60355;BME280;46198;51.464;-0.066;2023-01-25T06:03:57;103587.84;;;0.91;100.00
60355;BME280;46198;51.464;-0.066;2023-01-25T06:06:27;103580.59;;;0.93;100.00
60355;BME280;46198;51.464;-0.066;2023-01-25T06:08:55;103585.50;;;1.01;100.00
60355;BME280;46198;51.464;-0.066;2023-01-25T06:11:24;103583.69;;;1.01;100.00
60355;BME280;46198;51.464;-0.066;2023-01-25T06:13:53;103583.25;;;1.09;100.00
60355;BME280;46198;51.464;-0.066;2023-01-25T06:16:21;103587.78;;;0.93;100.00
60355;BME280;46198;51.464;-0.066;2023-01-25T06:19:19;103580.78;;;0.90;100.00
60355;BME280;46198;51.464;-0.066;2023-01-25T06:22:12;103578.00;;;0.92;100.00
60355;BME280;46198;51.464;-0.066;2023-01-25T06:24:40;103583.72;;;0.85;100.00
60355;BME280;46198;51.464;-0.066;2023-01-25T06:27:08;103575.63;;;0.87;100.00
60355;BME280;46198;51.464;-0.066;2023-01-25T06:29:38;103569.75;;;0.80;100.00
60355;BME280;46198;51.464;-0.066;2023-01-25T06:32:06;103572.66;;;0.92;100.00
60355;BME280;46198;51.464;-0.066;2023-01-25T06:34:34;103571.72;;;0.93;100.00
60355;BME280;46198;51.464;-0.066;2023-01-25T06:37:03;103564.41;;;0.80;100.00
60355;BME280;46198;51.464;-0.066;2023-01-25T06:39:32;103561.53;;;0.83;100.00
60355;BME280;46198;51.464;-0.066;2023-01-25T06:42:01;103567.59;;;0.87;100.00
60355;BME280;46198;51.464;-0.066;2023-01-25T06:44:29;103563.84;;;0.89;100.00
60355;BME280;46198;51.464;-0.066;2023-01-25T06:46:57;103567.31;;;0.92;100.00
60355;BME280;46198;51.464;-0.066;2023-01-25T06:49:25;103555.38;;;0.97;100.00
60355;BME280;46198;51.464;-0.066;2023-01-25T06:51:53;103560.59;;;0.84;100.00
60355;BME280;46198;51.464;-0.066;2023-01-25T06:54:21;103558.34;;;0.93;100.00
60355;BME280;46198;51.464;-0.066;2023-01-25T06:56:51;103550.88;;;0.98;100.00
60355;BME280;46198;51.464;-0.066;2023-01-25T06:59:19;103550.72;;;1.01;100.00
60355;BME280;46198;51.464;-0.066;2023-01-25T07:05:06;103541.94;;;0.99;100.00
60355;BME280;46198;51.464;-0.066;2023-01-25T07:07:35;103538.66;;;0.94;100.00
60355;BME280;46198;51.464;-0.066;2023-01-25T07:10:04;103542.44;;;0.89;100.00
60355;BME280;46198;51.464;-0.066;2023-01-25T07:12:33;103547.34;;;0.97;100.00
60355;BME280;46198;51.464;-0.066;2023-01-25T07:15:03;103546.50;;;0.97;100.00
60355;BME280;46198;51.464;-0.066;2023-01-25T07:17:31;103541.53;;;0.91;100.00
60355;BME280;46198;51.464;-0.066;2023-01-25T07:20:00;103545.50;;;0.83;100.00
60355;BME280;46198;51.464;-0.066;2023-01-25T07:22:28;103546.91;;;0.75;100.00
60355;BME280;46198;51.464;-0.066;2023-01-25T07:24:57;103546.03;;;0.74;100.00
60355;BME280;46198;51.464;-0.066;2023-01-25T07:27:56;103544.91;;;0.78;100.00
60355;BME280;46198;51.464;-0.066;2023-01-25T07:30:25;103543.84;;;0.81;100.00
60355;BME280;46198;51.464;-0.066;2023-01-25T07:32:53;103533.69;;;0.72;100.00
60355;BME280;46198;51.464;-0.066;2023-01-25T07:35:22;103540.50;;;0.77;100.00
60355;BME280;46198;51.464;-0.066;2023-01-25T07:37:50;103535.66;;;0.84;100.00
60355;BME280;46198;51.464;-0.066;2023-01-25T07:40:18;103530.66;;;0.78;100.00
60355;BME280;46198;51.464;-0.066;2023-01-25T07:42:46;103542.16;;;0.80;100.00
60355;BME280;46198;51.464;-0.066;2023-01-25T07:45:17;103541.97;;;0.67;100.00
60355;BME280;46198;51.464;-0.066;2023-01-25T07:47:46;103529.81;;;0.77;100.00
60355;BME280;46198;51.464;-0.066;2023-01-25T07:50:15;103537.75;;;0.79;100.00
60355;BME280;46198;51.464;-0.066;2023-01-25T07:52:43;103535.59;;;0.70;100.00
60355;BME280;46198;51.464;-0.066;2023-01-25T07:55:36;103526.09;;;0.80;100.00
60355;BME280;46198;51.464;-0.066;2023-01-25T07:58:05;103524.47;;;0.77;100.00
60355;BME280;46198;51.464;-0.066;2023-01-25T08:00:34;103524.59;;;0.60;100.00
60355;BME280;46198;51.464;-0.066;2023-01-25T08:03:03;103527.69;;;0.68;100.00
60355;BME280;46198;51.464;-0.066;2023-01-25T08:05:33;103516.56;;;0.60;100.00
60355;BME280;46198;51.464;-0.066;2023-01-25T08:08:05;103510.84;;;0.66;100.00
60355;BME280;46198;51.464;-0.066;2023-01-25T08:10:33;103515.44;;;0.64;100.00
60355;BME280;46198;51.464;-0.066;2023-01-25T08:13:01;103525.53;;;0.59;100.00
60355;BME280;46198;51.464;-0.066;2023-01-25T08:15:29;103514.31;;;0.68;100.00
60355;BME280;46198;51.464;-0.066;2023-01-25T08:17:59;103515.59;;;0.61;100.00
60355;BME280;46198;51.464;-0.066;2023-01-25T08:20:27;103510.94;;;0.49;100.00
60355;BME280;46198;51.464;-0.066;2023-01-25T08:22:56;103502.00;;;0.50;100.00
60355;BME280;46198;51.464;-0.066;2023-01-25T08:25:24;103501.94;;;0.35;100.00
60355;BME280;46198;51.464;-0.066;2023-01-25T08:27:53;103496.84;;;0.47;100.00
60355;BME280;46198;51.464;-0.066;2023-01-25T08:30:21;103490.97;;;0.40;100.00
60355;BME280;46198;51.464;-0.066;2023-01-25T08:32:49;103491.50;;;0.47;100.00
60355;BME280;46198;51.464;-0.066;2023-01-25T08:35:19;103498.53;;;0.48;100.00
60355;BME280;46198;51.464;-0.066;2023-01-25T08:37:47;103484.06;;;0.52;100.00
60355;BME280;46198;51.464;-0.066;2023-01-25T08:40:16;103475.25;;;0.50;100.00
60355;BME280;46198;51.464;-0.066;2023-01-25T08:42:44;103474.94;;;0.40;100.00
60355;BME280;46198;51.464;-0.066;2023-01-25T08:45:12;103489.06;;;0.26;100.00
60355;BME280;46198;51.464;-0.066;2023-01-25T08:47:40;103480.81;;;0.31;100.00
60355;BME280;46198;51.464;-0.066;2023-01-25T08:50:09;103479.16;;;0.28;100.00
60355;BME280;46198;51.464;-0.066;2023-01-25T08:52:39;103475.53;;;0.29;100.00
60355;BME280;46198;51.464;-0.066;2023-01-25T08:55:08;103468.78;;;0.38;100.00
60355;BME280;46198;51.464;-0.066;2023-01-25T08:57:36;103471.47;;;0.38;100.00
60355;BME280;46198;51.464;-0.066;2023-01-25T09:00:30;103467.94;;;0.37;100.00
60355;BME280;46198;51.464;-0.066;2023-01-25T09:02:58;103464.22;;;0.40;100.00
60355;BME280;46198;51.464;-0.066;2023-01-25T09:05:26;103466.22;;;0.36;100.00
60355;BME280;46198;51.464;-0.066;2023-01-25T09:07:57;103477.88;;;0.35;100.00
60355;BME280;46198;51.464;-0.066;2023-01-25T09:10:25;103461.66;;;0.38;100.00
60355;BME280;46198;51.464;-0.066;2023-01-25T09:12:53;103470.38;;;0.26;100.00
60355;BME280;46198;51.464;-0.066;2023-01-25T09:15:22;103471.16;;;0.28;100.00
60355;BME280;46198;51.464;-0.066;2023-01-25T09:17:50;103471.16;;;0.28;100.00
60355;BME280;46198;51.464;-0.066;2023-01-25T09:20:18;103466.00;;;0.25;100.00
60355;BME280;46198;51.464;-0.066;2023-01-25T09:22:46;103451.16;;;0.35;100.00
60355;BME280;46198;51.464;-0.066;2023-01-25T09:25:16;103448.91;;;0.43;100.00
60355;BME280;46198;51.464;-0.066;2023-01-25T09:27:47;103443.72;;;0.40;100.00
60355;BME280;46198;51.464;-0.066;2023-01-25T09:30:16;103435.69;;;0.40;100.00
60355;BME280;46198;51.464;-0.066;2023-01-25T09:32:51;103424.25;;;0.38;100.00
60355;BME280;46198;51.464;-0.066;2023-01-25T09:35:19;103413.00;;;0.48;100.00
60355;BME280;46198;51.464;-0.066;2023-01-25T09:37:49;103408.31;;;0.51;100.00
60355;BME280;46198;51.464;-0.066;2023-01-25T09:40:20;103414.38;;;0.55;100.00
60355;BME280;46198;51.464;-0.066;2023-01-25T09:42:55;103404.63;;;0.54;100.00
60355;BME280;46198;51.464;-0.066;2023-01-25T09:45:35;103404.91;;;0.49;100.00
60355;BME280;46198;51.464;-0.066;2023-01-25T09:48:13;103396.41;;;0.57;100.00
60355;BME280;46198;51.464;-0.066;2023-01-25T09:51:00;103403.78;;;0.68;100.00
60355;BME280;46198;51.464;-0.066;2023-01-25T09:53:33;103394.91;;;0.67;100.00
60355;BME280;46198;51.464;-0.066;2023-01-25T09:56:14;103391.84;;;0.73;100.00
60355;BME280;46198;51.464;-0.066;2023-01-25T09:58:45;103387.06;;;0.64;100.00
60355;BME280;46198;51.464;-0.066;2023-01-25T10:01:26;103382.13;;;0.72;100.00
60355;BME280;46198;51.464;-0.066;2023-01-25T10:04:10;103377.84;;;0.84;100.00
60355;BME280;46198;51.464;-0.066;2023-01-25T10:06:43;103376.91;;;0.85;100.00
60355;BME280;46198;51.464;-0.066;2023-01-25T10:09:33;103375.47;;;0.94;100.00
60355;BME280;46198;51.464;-0.066;2023-01-25T10:12:13;103366.22;;;0.99;100.00
60355;BME280;46198;51.464;-0.066;2023-01-25T10:14:42;103356.56;;;0.97;100.00
60355;BME280;46198;51.464;-0.066;2023-01-25T10:17:13;103359.81;;;1.02;100.00
60355;BME280;46198;51.464;-0.066;2023-01-25T10:19:58;103350.47;;;1.09;100.00
60355;BME280;46198;51.464;-0.066;2023-01-25T10:22:34;103351.50;;;1.06;100.00
60355;BME280;46198;51.464;-0.066;2023-01-25T10:25:18;103355.81;;;1.09;100.00
60355;BME280;46198;51.464;-0.066;2023-01-25T10:28:01;103348.38;;;1.14;100.00
60355;BME280;46198;51.464;-0.066;2023-01-25T10:30:34;103346.81;;;1.10;100.00
60355;BME280;46198;51.464;-0.066;2023-01-25T10:33:11;103337.66;;;1.14;100.00
60355;BME280;46198;51.464;-0.066;2023-01-25T10:35:43;103344.72;;;1.15;100.00
60355;BME280;46198;51.464;-0.066;2023-01-25T10:38:17;103342.03;;;1.15;100.00
60355;BME280;46198;51.464;-0.066;2023-01-25T10:40:49;103335.34;;;1.22;100.00
60355;BME280;46198;51.464;-0.066;2023-01-25T10:43:21;103327.41;;;1.21;100.00
60355;BME280;46198;51.464;-0.066;2023-01-25T10:45:50;103325.09;;;1.29;100.00
60355;BME280;46198;51.464;-0.066;2023-01-25T10:48:20;103319.47;;;1.33;100.00
60355;BME280;46198;51.464;-0.066;2023-01-25T10:50:51;103309.63;;;1.34;100.00
60355;BME280;46198;51.464;-0.066;2023-01-25T10:53:26;103311.03;;;1.40;100.00
60355;BME280;46198;51.464;-0.066;2023-01-25T10:56:04;103325.06;;;1.43;100.00
60355;BME280;46198;51.464;-0.066;2023-01-25T10:58:47;103301.66;;;1.47;100.00
60355;BME280;46198;51.464;-0.066;2023-01-25T11:01:28;103304.81;;;1.39;100.00
60355;BME280;46198;51.464;-0.066;2023-01-25T11:03:57;103295.75;;;1.42;100.00
60355;BME280;46198;51.464;-0.066;2023-01-25T11:06:34;103295.13;;;1.51;100.00
60355;BME280;46198;51.464;-0.066;2023-01-25T11:09:30;103297.31;;;1.59;100.00
60355;BME280;46198;51.464;-0.066;2023-01-25T11:11:59;103294.91;;;1.68;100.00
60355;BME280;46198;51.464;-0.066;2023-01-25T11:14:31;103290.41;;;1.69;100.00
60355;BME280;46198;51.464;-0.066;2023-01-25T11:17:00;103289.00;;;1.76;100.00
60355;BME280;46198;51.464;-0.066;2023-01-25T11:19:32;103284.00;;;1.84;100.00
60355;BME280;46198;51.464;-0.066;2023-01-25T11:22:02;103276.09;;;1.83;100.00
60355;BME280;46198;51.464;-0.066;2023-01-25T11:24:32;103270.81;;;1.81;100.00
60355;BME280;46198;51.464;-0.066;2023-01-25T11:27:12;103261.72;;;1.84;100.00
60355;BME280;46198;51.464;-0.066;2023-01-25T11:29:42;103258.69;;;1.75;100.00
60355;BME280;46198;51.464;-0.066;2023-01-25T11:32:16;103242.16;;;1.96;100.00
60355;BME280;46198;51.464;-0.066;2023-01-25T11:34:49;103234.75;;;1.99;100.00
60355;BME280;46198;51.464;-0.066;2023-01-25T11:37:35;103220.84;;;2.07;100.00
60355;BME280;46198;51.464;-0.066;2023-01-25T11:40:14;103216.75;;;2.14;100.00
60355;BME280;46198;51.464;-0.066;2023-01-25T11:42:53;103220.31;;;2.15;100.00
60355;BME280;46198;51.464;-0.066;2023-01-25T11:45:43;103209.38;;;2.18;100.00
60355;BME280;46198;51.464;-0.066;2023-01-25T11:48:23;103203.28;;;2.29;100.00
60355;BME280;46198;51.464;-0.066;2023-01-25T11:51:02;103196.31;;;2.39;100.00
60355;BME280;46198;51.464;-0.066;2023-01-25T11:53:42;103194.78;;;2.48;100.00
60355;BME280;46198;51.464;-0.066;2023-01-25T11:56:19;103191.75;;;2.52;100.00
60355;BME280;46198;51.464;-0.066;2023-01-25T11:59:08;103193.28;;;2.56;100.00
60355;BME280;46198;51.464;-0.066;2023-01-25T12:01:57;103187.00;;;2.69;100.00
60355;BME280;46198;51.464;-0.066;2023-01-25T12:04:42;103189.38;;;2.60;100.00
60355;BME280;46198;51.464;-0.066;2023-01-25T12:07:21;103188.22;;;2.64;100.00
60355;BME280;46198;51.464;-0.066;2023-01-25T12:10:03;103182.63;;;2.67;100.00
60355;BME280;46198;51.464;-0.066;2023-01-25T12:12:44;103177.56;;;2.76;100.00
60355;BME280;46198;51.464;-0.066;2023-01-25T12:15:34;103165.06;;;2.87;100.00
60355;BME280;46198;51.464;-0.066;2023-01-25T12:18:17;103158.91;;;2.74;100.00
60355;BME280;46198;51.464;-0.066;2023-01-25T12:21:01;103147.44;;;2.59;100.00
60355;BME280;46198;51.464;-0.066;2023-01-25T12:23:39;103155.47;;;2.72;100.00
60355;BME280;46198;51.464;-0.066;2023-01-25T12:26:18;103154.41;;;2.75;100.00
60355;BME280;46198;51.464;-0.066;2023-01-25T12:28:49;103147.53;;;2.71;100.00
60355;BME280;46198;51.464;-0.066;2023-01-25T12:31:23;103139.25;;;2.74;100.00
60355;BME280;46198;51.464;-0.066;2023-01-25T12:33:57;103144.41;;;2.77;100.00
60355;BME280;46198;51.464;-0.066;2023-01-25T12:36:31;103144.41;;;2.77;100.00
60355;BME280;46198;51.464;-0.066;2023-01-25T12:39:03;103130.16;;;3.00;100.00
60355;BME280;46198;51.464;-0.066;2023-01-25T12:41:37;103135.66;;;2.99;100.00
60355;BME280;46198;51.464;-0.066;2023-01-25T12:44:16;103126.91;;;3.08;100.00
60355;BME280;46198;51.464;-0.066;2023-01-25T12:46:53;103123.00;;;3.12;100.00
60355;BME280;46198;51.464;-0.066;2023-01-25T12:49:29;103131.19;;;3.10;100.00
60355;BME280;46198;51.464;-0.066;2023-01-25T12:52:04;103140.22;;;3.09;100.00
60355;BME280;46198;51.464;-0.066;2023-01-25T12:54:37;103141.69;;;3.14;100.00
60355;BME280;46198;51.464;-0.066;2023-01-25T12:57:14;103145.50;;;3.22;100.00
60355;BME280;46198;51.464;-0.066;2023-01-25T12:59:52;103143.19;;;3.18;100.00
60355;BME280;46198;51.464;-0.066;2023-01-25T13:02:33;103147.81;;;3.16;100.00
60355;BME280;46198;51.464;-0.066;2023-01-25T13:05:15;103154.59;;;3.08;100.00
60355;BME280;46198;51.464;-0.066;2023-01-25T13:07:52;103168.53;;;3.14;100.00
60355;BME280;46198;51.464;-0.066;2023-01-25T13:10:28;103169.38;;;3.14;100.00
60355;BME280;46198;51.464;-0.066;2023-01-25T13:12:59;103163.69;;;3.19;100.00
60355;BME280;46198;51.464;-0.066;2023-01-25T13:15:34;103161.00;;;3.19;100.00
60355;BME280;46198;51.464;-0.066;2023-01-25T13:18:36;103158.81;;;3.00;100.00
60355;BME280;46198;51.464;-0.066;2023-01-25T13:21:10;103170.88;;;2.94;100.00
60355;BME280;46198;51.464;-0.066;2023-01-25T13:24:13;103159.63;;;2.89;100.00
60355;BME280;46198;51.464;-0.066;2023-01-25T13:26:46;103156.25;;;2.98;100.00
60355;BME280;46198;51.464;-0.066;2023-01-25T13:32:53;103152.09;;;2.94;100.00